Observation data for Tulia on 05/25/2019      Previous  Date  Next       Current Mesonet Observations  Soil Data  Daily Summary Page  Observations in Plain Language
KTIS 250500Z 17016KT 19/11 A2996 RMK A01 T01850108  RH  063%=      5-min Rain = 0
KTIS 250505Z 17016KT 19/11 A2997 RMK A01 T01870112  RH  064%=      5-min Rain = 0
KTIS 250510Z 17016G21KT 19/12 A2997 RMK A01 T01890122  RH  068%=      5-min Rain = 0
KTIS 250515Z 17016KT 19/13 A2997 RMK A01 T01910132  RH  071%=      5-min Rain = 0
KTIS 250520Z 17015KT 19/14 A2997 RMK A01 T01910137  RH  073%=      5-min Rain = 0
KTIS 250525Z 17014G20KT 19/14 A2997 RMK A01 T01920139  RH  075%=      5-min Rain = 0
KTIS 250530Z 17015G20KT 19/14 A2997 RMK A01 T01920141  RH  075%=      5-min Rain = 0
KTIS 250535Z 16014KT 19/14 A2997 RMK A01 T01920144  RH  077%=      5-min Rain = 0
KTIS 250540Z 16014KT 19/15 A2997 RMK A01 T01920147  RH  079%=      5-min Rain = 0
KTIS 250545Z 16013KT 19/15 A2997 RMK A01 T01910149  RH  080%=      5-min Rain = 0
KTIS 250550Z 16013KT 19/15 A2998 RMK A01 T01900151  RH  082%=      5-min Rain = 0
KTIS 250555Z 16013KT 19/15 A2997 RMK A01 T01900153  RH  083%=      5-min Rain = 0
KTIS 250600Z 16013G18KT 19/15 A2997 RMK A01 T01890154  RH  084%=      5-min Rain = 0
KTIS 250605Z 15014KT 19/16 A2997 RMK A01 T01890156  RH  085%=      5-min Rain = 0
KTIS 250610Z 15013KT 19/16 A2997 RMK A01 T01880157  RH  086%=      5-min Rain = 0
KTIS 250615Z 15013G18KT 19/16 A2997 RMK A01 T01880157  RH  086%=      5-min Rain = 0
KTIS 250620Z 15014KT 19/16 A2997 RMK A01 T01870158  RH  087%=      5-min Rain = 0
KTIS 250625Z 15015KT 19/16 A2997 RMK A01 T01880159  RH  087%=      5-min Rain = 0
KTIS 250630Z 15015KT 19/16 A2997 RMK A01 T01870159  RH  088%=      5-min Rain = 0
KTIS 250635Z 15014G19KT 19/16 A2997 RMK A01 T01860159  RH  088%=      5-min Rain = 0
KTIS 250640Z 15013G20KT 19/16 A2997 RMK A01 T01850159  RH  089%=      5-min Rain = 0
KTIS 250645Z 15013KT 18/16 A2997 RMK A01 T01840159  RH  089%=      5-min Rain = 0
KTIS 250650Z 15012G17KT 18/16 A2997 RMK A01 T01820158  RH  090%=      5-min Rain = 0
KTIS 250655Z 14012G18KT 18/16 A2997 RMK A01 T01810158  RH  090%=      5-min Rain = 0
KTIS 250700Z 15013KT 18/16 A2997 RMK A01 T01800157  RH  091%=      5-min Rain = 0
KTIS 250705Z 15012KT 18/16 A2997 RMK A01 T01790157  RH  091%=      5-min Rain = 0
KTIS 250710Z 15010KT 18/16 A2997 RMK A01 T01770156  RH  092%=      5-min Rain = 0
KTIS 250715Z 14012KT 18/16 A2997 RMK A01 T01760156  RH  092%=      5-min Rain = 0
KTIS 250720Z 15011KT 18/16 A2997 RMK A01 T01760156  RH  092%=      5-min Rain = 0
KTIS 250725Z 15011KT 18/16 A2997 RMK A01 T01750155  RH  092%=      5-min Rain = 0
KTIS 250730Z 15010KT 17/16 A2997 RMK A01 T01740155  RH  093%=      5-min Rain = 0
KTIS 250735Z 15009KT 17/16 A2997 RMK A01 T01730155  RH  093%=      5-min Rain = 0
KTIS 250740Z 15008KT 17/15 A2997 RMK A01 T01730154  RH  093%=      5-min Rain = 0
KTIS 250745Z 15008KT 17/16 A2997 RMK A01 T01730155  RH  093%=      5-min Rain = 0
KTIS 250750Z 14008KT 17/16 A2997 RMK A01 T01740156  RH  093%=      5-min Rain = 0
KTIS 250755Z 15007KT 17/16 A2997 RMK A01 T01740156  RH  093%=      5-min Rain = 0
KTIS 250800Z 14007KT 17/16 A2997 RMK A01 T01740155  RH  093%=      5-min Rain = 0
KTIS 250805Z 14009KT 17/16 A2998 RMK A01 T01740156  RH  093%=      5-min Rain = 0
KTIS 250810Z 15009KT 17/16 A2997 RMK A01 T01740156  RH  093%=      5-min Rain = 0
KTIS 250815Z 15008KT 18/16 A2997 RMK A01 T01750156  RH  093%=      5-min Rain = 0
KTIS 250820Z 15008KT 18/16 A2997 RMK A01 T01750156  RH  093%=      5-min Rain = 0
KTIS 250825Z 15010KT 18/16 A2997 RMK A01 T01760157  RH  093%=      5-min Rain = 0
KTIS 250830Z 15010KT 18/16 A2997 RMK A01 T01760157  RH  093%=      5-min Rain = 0
KTIS 250835Z 15011KT 18/16 A2997 RMK A01 T01760158  RH  093%=      5-min Rain = 0
KTIS 250840Z 15012G17KT 18/16 A2996 RMK A01 T01770159  RH  093%=      5-min Rain = 0
KTIS 250845Z 15012KT 18/16 A2997 RMK A01 T01770159  RH  094%=      5-min Rain = 0
KTIS 250850Z 15011KT 18/16 A2997 RMK A01 T01780160  RH  094%=      5-min Rain = 0
KTIS 250855Z 15010KT 18/16 A2996 RMK A01 T01780161  RH  094%=      5-min Rain = 0
KTIS 250900Z 15011KT 18/16 A2997 RMK A01 T01780161  RH  094%=      5-min Rain = 0
KTIS 250905Z 15013KT 18/16 A2997 RMK A01 T01790162  RH  094%=      5-min Rain = 0
KTIS 250910Z 15011KT 18/16 A2997 RMK A01 T01790162  RH  094%=      5-min Rain = 0
KTIS 250915Z 15013KT 18/16 A2997 RMK A01 T01780162  RH  094%=      5-min Rain = 0
KTIS 250920Z 15011KT 18/16 A2996 RMK A01 T01780162  RH  095%=      5-min Rain = 0
KTIS 250925Z 15012KT 18/16 A2996 RMK A01 T01780163  RH  095%=      5-min Rain = 0
KTIS 250930Z 15010KT 18/16 A2996 RMK A01 T01780162  RH  095%=      5-min Rain = 0
KTIS 250935Z 15011KT 18/16 A2996 RMK A01 T01780163  RH  095%=      5-min Rain = 0
KTIS 250940Z 15011KT 18/16 A2997 RMK A01 T01780163  RH  095%=      5-min Rain = 0
KTIS 250945Z 15011KT 18/16 A2997 RMK A01 T01780163  RH  095%=      5-min Rain = 0
KTIS 250950Z 15010G16KT 18/16 A2997 RMK A01 T01780164  RH  096%=      5-min Rain = 0
KTIS 250955Z 15011G16KT 18/16 A2997 RMK A01 T01780164  RH  096%=      5-min Rain = 0
KTIS 251000Z 15012KT 18/16 A2997 RMK A01 T01780164  RH  096%=      5-min Rain = 0
KTIS 251005Z 15011KT 18/17 A2997 RMK A01 T01780165  RH  096%=      5-min Rain = 0
KTIS 251010Z 15011KT 18/17 A2997 RMK A01 T01780165  RH  096%=      5-min Rain = 0
KTIS 251015Z 15009KT 18/17 A2998 RMK A01 T01780165  RH  097%=      5-min Rain = 0
KTIS 251020Z 15008KT 18/17 A2998 RMK A01 T01780166  RH  097%=      5-min Rain = 0
KTIS 251025Z 15010KT 18/17 A2998 RMK A01 T01780166  RH  097%=      5-min Rain = 0
KTIS 251030Z 15010KT 18/17 A2998 RMK A01 T01790166  RH  097%=      5-min Rain = 0
KTIS 251035Z 15010KT 18/17 A2998 RMK A01 T01790167  RH  097%=      5-min Rain = 0
KTIS 251040Z 15011G17KT 18/17 A2998 RMK A01 T01800167  RH  097%=      5-min Rain = 0
KTIS 251045Z 15013KT 18/17 A2998 RMK A01 T01810168  RH  097%=      5-min Rain = 0
KTIS 251050Z 15010G15KT 18/17 A2998 RMK A01 T01810168  RH  097%=      5-min Rain = 0
KTIS 251055Z 15011KT 18/17 A2998 RMK A01 T01820168  RH  096%=      5-min Rain = 0
KTIS 251100Z 15010KT 18/17 A2998 RMK A01 T01820168  RH  096%=      5-min Rain = 0
KTIS 251105Z 15009KT 18/17 A2999 RMK A01 T01820168  RH  096%=      5-min Rain = 0
KTIS 251110Z 15010KT 18/17 A2999 RMK A01 T01820169  RH  096%=      5-min Rain = 0
KTIS 251115Z 15010KT 18/17 A2999 RMK A01 T01830169  RH  096%=      5-min Rain = 0
KTIS 251120Z 16012KT 18/17 A2999 RMK A01 T01830169  RH  096%=      5-min Rain = 0
KTIS 251125Z 16011KT 18/17 A2999 RMK A01 T01840170  RH  096%=      5-min Rain = 0
KTIS 251130Z 16012KT 18/17 A2999 RMK A01 T01840170  RH  096%=      5-min Rain = 0
KTIS 251135Z 16011KT 18/17 A2999 RMK A01 T01840170  RH  096%=      5-min Rain = 0
KTIS 251140Z 16012G17KT 19/17 A2999 RMK A01 T01850171  RH  096%=      5-min Rain = 0
KTIS 251145Z 16011G16KT 19/17 A2999 RMK A01 T01850171  RH  096%=      5-min Rain = 0
KTIS 251150Z 16011KT 19/17 A30 RMK A01 T01860171  RH  096%=      5-min Rain = 0
KTIS 251155Z 16011KT 19/17 A30 RMK A01 T01860171  RH  096%=      5-min Rain = 0
KTIS 251200Z 16010KT 19/17 A30 RMK A01 T01860171  RH  096%=      5-min Rain = 0
KTIS 251205Z 16010KT 19/17 A30 RMK A01 T01870171  RH  095%=      5-min Rain = 0
KTIS 251210Z 16009KT 19/17 A30 RMK A01 T01870171  RH  095%=      5-min Rain = 0
KTIS 251215Z 16010KT 19/17 A30 RMK A01 T01880172  RH  095%=      5-min Rain = 0
KTIS 251220Z 16011KT 19/17 A3001 RMK A01 T01880172  RH  095%=      5-min Rain = 0
KTIS 251225Z 16011KT 19/17 A3001 RMK A01 T01880172  RH  095%=      5-min Rain = 0
KTIS 251230Z 16010KT 19/17 A3001 RMK A01 T01880172  RH  095%=      5-min Rain = 0
KTIS 251235Z 16011KT 19/17 A3001 RMK A01 T01890172  RH  095%=      5-min Rain = 0
KTIS 251240Z 16010KT 19/17 A3001 RMK A01 T01890172  RH  094%=      5-min Rain = 0
KTIS 251245Z 16009KT 19/17 A3001 RMK A01 T01890172  RH  094%=      5-min Rain = 0
KTIS 251250Z 16010KT 19/17 A3001 RMK A01 T01900172  RH  094%=      5-min Rain = 0
KTIS 251255Z 16012KT 19/17 A3001 RMK A01 T01900173  RH  094%=      5-min Rain = 0
KTIS 251300Z 17011KT 19/17 A3002 RMK A01 T01910173  RH  094%=      5-min Rain = 0
KTIS 251305Z 17011KT 19/17 A3002 RMK A01 T01920173  RH  093%=      5-min Rain = 0
KTIS 251310Z 17013KT 19/17 A3002 RMK A01 T01930174  RH  093%=      5-min Rain = 0
KTIS 251315Z 17013KT 19/17 A3002 RMK A01 T01930174  RH  093%=      5-min Rain = 0
KTIS 251320Z 17012KT 19/17 A3002 RMK A01 T01940174  RH  093%=      5-min Rain = 0
KTIS 251325Z 17012KT 19/18 A3002 RMK A01 T01940175  RH  093%=      5-min Rain = 0
KTIS 251330Z 17010KT 20/18 A3002 RMK A01 T01960175  RH  092%=      5-min Rain = 0
KTIS 251335Z 18012KT 20/18 A3003 RMK A01 T01970176  RH  092%=      5-min Rain = 0
KTIS 251340Z 18012KT 20/18 A3003 RMK A01 T01980176  RH  091%=      5-min Rain = 0
KTIS 251345Z 18011KT 20/18 A3003 RMK A01 T02000176  RH  091%=      5-min Rain = 0
KTIS 251350Z 18011KT 20/18 A3003 RMK A01 T02020177  RH  090%=      5-min Rain = 0
KTIS 251355Z 18010KT 20/18 A3003 RMK A01 T02040178  RH  089%=      5-min Rain = 0
KTIS 251400Z 18009KT 21/18 A3003 RMK A01 T02060179  RH  089%=      5-min Rain = 0
KTIS 251405Z 18013KT 21/18 A3003 RMK A01 T02070179  RH  088%=      5-min Rain = 0
KTIS 251410Z 18015KT 21/18 A3003 RMK A01 T02080178  RH  088%=      5-min Rain = 0
KTIS 251415Z 18012KT 21/18 A3003 RMK A01 T02080179  RH  088%=      5-min Rain = 0
KTIS 251420Z 17014G19KT 21/18 A3003 RMK A01 T02090179  RH  087%=      5-min Rain = 0
KTIS 251425Z 18014KT 21/18 A3003 RMK A01 T02100179  RH  087%=      5-min Rain = 0
KTIS 251430Z 18014KT 21/18 A3003 RMK A01 T02110180  RH  087%=      5-min Rain = 0
KTIS 251435Z 18014KT 21/18 A3003 RMK A01 T02120180  RH  086%=      5-min Rain = 0
KTIS 251440Z 18014KT 21/18 A3003 RMK A01 T02130180  RH  086%=      5-min Rain = 0
KTIS 251445Z 18014KT 21/18 A3003 RMK A01 T02130180  RH  085%=      5-min Rain = 0
KTIS 251450Z 18014G19KT 21/18 A3003 RMK A01 T02140179  RH  085%=      5-min Rain = 0
KTIS 251455Z 19015G20KT 21/18 A3003 RMK A01 T02130179  RH  085%=      5-min Rain = 0
KTIS 251500Z 18014G21KT 21/18 A3004 RMK A01 T02140179  RH  085%=      5-min Rain = 0
KTIS 251505Z 18017KT 21/18 A3004 RMK A01 T02130179  RH  085%=      5-min Rain = 0
KTIS 251510Z 18017KT 21/18 A3004 RMK A01 T02130179  RH  085%=      5-min Rain = 0
KTIS 251515Z 18015KT 21/18 A3004 RMK A01 T02140180  RH  085%=      5-min Rain = 0
KTIS 251520Z 18015G20KT 22/18 A3003 RMK A01 T02150180  RH  085%=      5-min Rain = 0
KTIS 251525Z 18016KT 22/18 A3003 RMK A01 T02150180  RH  085%=      5-min Rain = 0
KTIS 251530Z 18014G20KT 22/18 A3003 RMK A01 T02150180  RH  085%=      5-min Rain = 0
KTIS 251535Z 18015G21KT 22/18 A3003 RMK A01 T02160180  RH  084%=      5-min Rain = 0
KTIS 251540Z 17016KT 22/18 A3003 RMK A01 T02150179  RH  085%=      5-min Rain = 0
KTIS 251545Z 18013KT 22/18 A3003 RMK A01 T02170180  RH  084%=      5-min Rain = 0
KTIS 251550Z 17013KT 22/18 A3003 RMK A01 T02170180  RH  084%=      5-min Rain = 0
KTIS 251555Z 17013KT 22/18 A3003 RMK A01 T02160180  RH  084%=      5-min Rain = 0
KTIS 251600Z 17014KT 22/18 A3003 RMK A01 T02150180  RH  085%=      5-min Rain = 0
KTIS 251605Z 17013KT 22/18 A3003 RMK A01 T02150180  RH  085%=      5-min Rain = 0
KTIS 251610Z 17014KT 21/18 A3003 RMK A01 T02140180  RH  086%=      5-min Rain = 0
KTIS 251615Z 17013KT 21/18 A3003 RMK A01 T02140180  RH  085%=      5-min Rain = 0
KTIS 251620Z 16013KT 22/18 A3003 RMK A01 T02150181  RH  086%=      5-min Rain = 0
KTIS 251625Z 17012KT 22/18 A3003 RMK A01 T02160181  RH  085%=      5-min Rain = 0
KTIS 251630Z 16012KT 22/18 A3003 RMK A01 T02160181  RH  085%=      5-min Rain = 0
KTIS 251635Z 16014G19KT 22/18 A3003 RMK A01 T02150181  RH  085%=      5-min Rain = 0
KTIS 251640Z 16013KT 22/18 A3003 RMK A01 T02160181  RH  085%=      5-min Rain = 0
KTIS 251645Z 16012G17KT 22/18 A3003 RMK A01 T02160182  RH  086%=      5-min Rain = 0
KTIS 251650Z 17013KT 22/18 A3003 RMK A01 T02170182  RH  085%=      5-min Rain = 0
KTIS 251655Z 16013G18KT 22/18 A3003 RMK A01 T02190183  RH  085%=      5-min Rain = 0
KTIS 251700Z 16012G17KT 22/18 A3004 RMK A01 T02210184  RH  084%=      5-min Rain = 0
KTIS 251705Z 17016KT 22/18 A3004 RMK A01 T02210182  RH  083%=      5-min Rain = 0
KTIS 251710Z 17014KT 22/18 A3004 RMK A01 T02210182  RH  083%=      5-min Rain = 0
KTIS 251715Z 17013KT 22/18 A3004 RMK A01 T02200182  RH  083%=      5-min Rain = 0
KTIS 251720Z 16014KT 22/18 A3004 RMK A01 T02200182  RH  083%=      5-min Rain = 0
KTIS 251725Z 17013KT 22/18 A3004 RMK A01 T02190183  RH  084%=      5-min Rain = 0
KTIS 251730Z 17013KT 22/18 A3004 RMK A01 T02180183  RH  085%=      5-min Rain = 0
KTIS 251735Z 16014KT 22/19 A3003 RMK A01 T02200185  RH  085%=      5-min Rain = 0
KTIS 251740Z 16013KT 22/19 A3003 RMK A01 T02200188  RH  087%=      5-min Rain = 0
KTIS 251745Z 16014KT 22/19 A3003 RMK A01 T02150188  RH  089%=      5-min Rain = 0
KTIS 251750Z 16014KT 22/19 A3003 RMK A01 T02160189  RH  090%=      5-min Rain = 0
KTIS 251755Z 15017KT 22/19 A3003 RMK A01 T02190190  RH  088%=      5-min Rain = 0
KTIS 251800Z 16015G21KT 22/19 A3003 RMK A01 T02220193  RH  088%=      5-min Rain = 0
KTIS 251805Z 16017KT 22/19 A3003 RMK A01 T02190192  RH  089%=      5-min Rain = 0
KTIS 251810Z 16016G21KT 22/19 A3003 RMK A01 T02150187  RH  089%=      5-min Rain = 0
KTIS 251815Z 17016KT 22/19 A3003 RMK A01 T02150187  RH  089%=      5-min Rain = 0
KTIS 251820Z 17017G22KT 22/19 A3002 RMK A01 T02160185  RH  087%=      5-min Rain = 0
KTIS 251825Z 16015KT 22/19 A3002 RMK A01 T02160185  RH  087%=      5-min Rain = 0
KTIS 251830Z 15015G20KT 22/18 A3001 RMK A01 T02150184  RH  087%=      5-min Rain = 0
KTIS 251835Z 16016G22KT 22/18 A30 RMK A01 T02160183  RH  086%=      5-min Rain = 0
KTIS 251840Z 16018G23KT 21/18 A3001 RMK A01 T02140182  RH  087%=      5-min Rain = 0
KTIS 251845Z 16017G22KT 21/18 A3001 RMK A01 T02120182  RH  088%=      5-min Rain = 0
KTIS 251850Z 16016KT 21/18 A3001 RMK A01 T02100182  RH  088%=      5-min Rain = 0
KTIS 251855Z 16017G23KT 21/18 A30 RMK A01 T02090181  RH  088%=      5-min Rain = 0
KTIS 251900Z 15015G20KT 21/18 A2999 RMK A01 T02090181  RH  089%=      5-min Rain = 0
KTIS 251905Z 15016G22KT 21/18 A2999 RMK A01 T02080181  RH  089%=      5-min Rain = 0
KTIS 251910Z 16014G19KT 21/18 A2999 RMK A01 T02070181  RH  089%=      5-min Rain = 0
KTIS 251915Z 17013KT 21/18 A30 RMK A01 T02080181  RH  089%=      5-min Rain = 0
KTIS 251920Z 16010KT 21/18 A3001 RMK A01 T02080182  RH  089%=      5-min Rain = 0
KTIS 251925Z 16011KT 21/18 A30 RMK A01 T02080182  RH  090%=      5-min Rain = 0
KTIS 251930Z 16011KT 21/18 A30 RMK A01 T02080182  RH  090%=      5-min Rain = 0
KTIS 251935Z 15011G17KT 21/18 A2999 RMK A01 T02070182  RH  090%=      5-min Rain = 0
KTIS 251940Z 15013KT 21/18 A2999 RMK A01 T02060181  RH  090%=      5-min Rain = 0
KTIS 251945Z 16013G19KT 21/18 A2999 RMK A01 T02060181  RH  090%=      5-min Rain = 0
KTIS 251950Z 16015G21KT 21/18 A30 RMK A01 T02060180  RH  090%=      5-min Rain = 0
KTIS 251955Z 16016KT 21/18 A2999 RMK A01 T02060181  RH  090%=      5-min Rain = 0
KTIS 252000Z 16012KT 21/18 A2997 RMK A01 T02060181  RH  090%=      5-min Rain = 0
KTIS 252005Z 16013G19KT 21/18 A2998 RMK A01 T02050181  RH  091%=      5-min Rain = 0
KTIS 252010Z 18015G21KT 20/18 A3001 RMK A01 T02040183  RH  092%=      5-min Rain = 0
KTIS 252015Z 19011KT 20/18 A30 RMK A01 T02030183  RH  093%=      5-min Rain = 0.03
KTIS 252020Z 19011KT 20/18 A3001 RMK A01 T02020184  RH  094%=      5-min Rain = 0.06
KTIS 252025Z 19028G45KT 19/17 A3002 RMK A01 T01910173  RH  094%=      5-min Rain = 0.23
KTIS 252030Z 16023G38KT 17/16 A3001 RMK A01 T01720159  RH  097%=      5-min Rain = 0.21
KTIS 252035Z 16016KT 16/15 A2999 RMK A01 T01610148  RH  096%=      5-min Rain = 0.03
KTIS 252040Z 15009G16KT 16/15 A2998 RMK A01 T01610150  RH  097%=      5-min Rain = 0
KTIS 252045Z 15006KT 16/15 A2997 RMK A01 T01630152  RH  098%=      5-min Rain = 0.02
KTIS 252050Z 14011KT 17/16 A2997 RMK A01 T01660156  RH  098%=      5-min Rain = 0
KTIS 252055Z 14011G17KT 17/16 A2997 RMK A01 T01720162  RH  098%=      5-min Rain = 0
KTIS 252100Z 14009KT 18/17 A2997 RMK A01 T01790169  RH  098%=      5-min Rain = 0
KTIS 252105Z 17012KT 18/17 A2997 RMK A01 T01840171  RH  097%=      5-min Rain = 0
KTIS 252110Z 16010KT 18/17 A2998 RMK A01 T01830166  RH  094%=      5-min Rain = 0
KTIS 252115Z 14008KT 19/17 A2997 RMK A01 T01860167  RH  093%=      5-min Rain = 0
KTIS 252120Z 13008KT 19/16 A2997 RMK A01 T01880163  RH  090%=      5-min Rain = 0
KTIS 252125Z 12007KT 19/16 A2997 RMK A01 T01880159  RH  087%=      5-min Rain = 0
KTIS 252130Z 11007KT 19/16 A2996 RMK A01 T01870160  RH  088%=      5-min Rain = 0
KTIS 252135Z 10009KT 19/16 A2995 RMK A01 T01860163  RH  090%=      5-min Rain = 0
KTIS 252140Z 11009KT 19/17 A2994 RMK A01 T01860165  RH  092%=      5-min Rain = 0
KTIS 252145Z 11009KT 18/16 A2994 RMK A01 T01840163  RH  092%=      5-min Rain = 0.01
KTIS 252150Z 13006KT 18/16 A2995 RMK A01 T01830163  RH  092%=      5-min Rain = 0
KTIS 252155Z 11003KT 18/16 A2996 RMK A01 T01830163  RH  093%=      5-min Rain = 0.01
KTIS 252200Z 19003KT 18/16 A2997 RMK A01 T01820163  RH  093%=      5-min Rain = 0.01
KTIS 252205Z 13009KT 18/16 A2996 RMK A01 T01820163  RH  093%=      5-min Rain = 0.02
KTIS 252210Z 15012G17KT 18/16 A2997 RMK A01 T01810162  RH  093%=      5-min Rain = 0.03
KTIS 252215Z 12012G17KT 17/16 A2994 RMK A01 T01740155  RH  093%=      5-min Rain = 0.01
KTIS 252220Z 13013KT 17/15 A2994 RMK A01 T01700146  RH  090%=      5-min Rain = 0
KTIS 252225Z 15012G18KT 17/14 A2995 RMK A01 T01710141  RH  086%=      5-min Rain = 0
KTIS 252230Z 13010G15KT 17/14 A2995 RMK A01 T01730141  RH  085%=      5-min Rain = 0
KTIS 252235Z 13007KT 17/15 A2994 RMK A01 T01740146  RH  087%=      5-min Rain = 0.01
KTIS 252240Z 12008G13KT 18/15 A2995 RMK A01 T01760151  RH  089%=      5-min Rain = 0
KTIS 252245Z 09008KT 18/15 A2996 RMK A01 T01760153  RH  090%=      5-min Rain = 0
KTIS 252250Z 08010KT 17/15 A2997 RMK A01 T01730150  RH  090%=      5-min Rain = 0
KTIS 252255Z 07006KT 17/15 A2996 RMK A01 T01740149  RH  089%=      5-min Rain = 0
KTIS 252300Z 09007KT 18/15 A2993 RMK A01 T01760150  RH  089%=      5-min Rain = 0
KTIS 252305Z 12007KT 18/15 A2994 RMK A01 T01780154  RH  090%=      5-min Rain = 0
KTIS 252310Z 13007KT 18/16 A2994 RMK A01 T01820159  RH  091%=      5-min Rain = 0
KTIS 252315Z 18002KT 18/16 A2997 RMK A01 T01840159  RH  090%=      5-min Rain = 0
KTIS 252320Z 28007KT 18/16 A30 RMK A01 T01840161  RH  090%=      5-min Rain = 0.01
KTIS 252325Z 31010KT 18/16 A30 RMK A01 T01830160  RH  090%=      5-min Rain = 0
KTIS 252330Z 33007KT 18/16 A2998 RMK A01 T01810159  RH  091%=      5-min Rain = 0
KTIS 252335Z 02004KT 18/16 A2997 RMK A01 T01810159  RH  091%=      5-min Rain = 0
KTIS 252340Z 14005KT 18/16 A2998 RMK A01 T01810160  RH  091%=      5-min Rain = 0.05
KTIS 252345Z 11007KT 18/16 A2999 RMK A01 T01790160  RH  093%=      5-min Rain = 0.04
KTIS 252350Z 36001KT 18/16 A3001 RMK A01 T01770159  RH  094%=      5-min Rain = 0
KTIS 252355Z 17005KT 18/16 A3002 RMK A01 T01770160  RH  094%=      5-min Rain = 0.02
KTIS 260000Z 18003KT 18/16 A3002 RMK A01 T01800162  RH  094%=      5-min Rain = 0.01
KTIS 260005Z 35003KT 18/16 A30 RMK A01 T01800163  RH  094%=      5-min Rain = 0.01
KTIS 260010Z 03006KT 18/16 A2997 RMK A01 T01800163  RH  094%=      5-min Rain = 0
KTIS 260015Z 02007KT 18/16 A2995 RMK A01 T01820163  RH  093%=      5-min Rain = 0
KTIS 260020Z 09007KT 19/17 A2996 RMK A01 T01850165  RH  092%=      5-min Rain = 0
KTIS 260025Z 12008KT 19/17 A2996 RMK A01 T01870167  RH  092%=      5-min Rain = 0
KTIS 260030Z 13005KT 19/17 A2995 RMK A01 T01890167  RH  092%=      5-min Rain = 0
KTIS 260035Z 13003KT 19/17 A2995 RMK A01 T01920168  RH  090%=      5-min Rain = 0
KTIS 260040Z 14005KT 20/17 A2995 RMK A01 T01950167  RH  088%=      5-min Rain = 0
KTIS 260045Z 15006KT 20/17 A2996 RMK A01 T01960167  RH  087%=      5-min Rain = 0
KTIS 260050Z 17005KT 20/17 A2996 RMK A01 T01950166  RH  087%=      5-min Rain = 0
KTIS 260055Z 16007KT 20/17 A2996 RMK A01 T01960168  RH  088%=      5-min Rain = 0
KTIS 260100Z 14007KT 20/17 A2996 RMK A01 T01950166  RH  088%=      5-min Rain = 0
KTIS 260105Z 13007KT 19/17 A2996 RMK A01 T01930165  RH  088%=      5-min Rain = 0
KTIS 260110Z 13008KT 19/16 A2996 RMK A01 T01900164  RH  089%=      5-min Rain = 0
KTIS 260115Z 13009KT 19/16 A2996 RMK A01 T01870163  RH  090%=      5-min Rain = 0
KTIS 260120Z 13008KT 19/16 A2996 RMK A01 T01850162  RH  091%=      5-min Rain = 0
KTIS 260125Z 12008KT 18/16 A2996 RMK A01 T01840163  RH  092%=      5-min Rain = 0
KTIS 260130Z 11009KT 18/16 A2995 RMK A01 T01820162  RH  093%=      5-min Rain = 0
KTIS 260135Z 12008KT 18/16 A2995 RMK A01 T01810161  RH  093%=      5-min Rain = 0
KTIS 260140Z 11009KT 18/16 A2995 RMK A01 T01790160  RH  093%=      5-min Rain = 0
KTIS 260145Z 12009KT 18/16 A2995 RMK A01 T01790158  RH  092%=      5-min Rain = 0
KTIS 260150Z 12008KT 18/16 A2995 RMK A01 T01780157  RH  092%=      5-min Rain = 0
KTIS 260155Z 13007KT 18/16 A2995 RMK A01 T01780156  RH  091%=      5-min Rain = 0
KTIS 260200Z 12007KT 18/16 A2994 RMK A01 T01770155  RH  091%=      5-min Rain = 0
KTIS 260205Z 12007KT 18/16 A2994 RMK A01 T01760155  RH  092%=      5-min Rain = 0
KTIS 260210Z 12006KT 18/16 A2994 RMK A01 T01750155  RH  092%=      5-min Rain = 0
KTIS 260215Z 11005KT 17/15 A2995 RMK A01 T01730154  RH  093%=      5-min Rain = 0
KTIS 260220Z 10005KT 17/15 A2994 RMK A01 T01710153  RH  093%=      5-min Rain = 0
KTIS 260225Z 11005KT 17/15 A2994 RMK A01 T01690152  RH  094%=      5-min Rain = 0
KTIS 260230Z 11004KT 17/15 A2994 RMK A01 T01680151  RH  094%=      5-min Rain = 0
KTIS 260235Z 13004KT 17/15 A2994 RMK A01 T01660150  RH  094%=      5-min Rain = 0
KTIS 260240Z 13007KT 17/15 A2994 RMK A01 T01660151  RH  095%=      5-min Rain = 0
KTIS 260245Z 14008KT 17/15 A2994 RMK A01 T01700153  RH  094%=      5-min Rain = 0
KTIS 260250Z 14008KT 17/16 A2994 RMK A01 T01740155  RH  093%=      5-min Rain = 0
KTIS 260255Z 14008KT 18/16 A2994 RMK A01 T01760156  RH  092%=      5-min Rain = 0
KTIS 260300Z 14009KT 18/16 A2994 RMK A01 T01770156  RH  092%=      5-min Rain = 0
KTIS 260305Z 14008KT 18/16 A2995 RMK A01 T01780157  RH  092%=      5-min Rain = 0
KTIS 260310Z 14009KT 18/16 A2995 RMK A01 T01790159  RH  093%=      5-min Rain = 0
KTIS 260315Z 15009KT 18/16 A2995 RMK A01 T01810162  RH  093%=      5-min Rain = 0
KTIS 260320Z 15010KT 18/17 A2995 RMK A01 T01830165  RH  093%=      5-min Rain = 0
KTIS 260325Z 15010KT 19/17 A2995 RMK A01 T01850166  RH  093%=      5-min Rain = 0
KTIS 260330Z 16010KT 19/17 A2995 RMK A01 T01860167  RH  093%=      5-min Rain = 0
KTIS 260335Z 16011G16KT 19/17 A2995 RMK A01 T01870167  RH  093%=      5-min Rain = 0
KTIS 260340Z 16012KT 19/17 A2995 RMK A01 T01870167  RH  093%=      5-min Rain = 0
KTIS 260345Z 17012KT 19/17 A2995 RMK A01 T01880168  RH  093%=      5-min Rain = 0
KTIS 260350Z 17011KT 19/17 A2995 RMK A01 T01880168  RH  092%=      5-min Rain = 0
KTIS 260355Z 16011KT 19/17 A2994 RMK A01 T01870167  RH  093%=      5-min Rain = 0
KTIS 260400Z 17011KT 19/17 A2995 RMK A01 T01860167  RH  093%=      5-min Rain = 0
KTIS 260405Z 17011KT 19/17 A2995 RMK A01 T01860168  RH  093%=      5-min Rain = 0
KTIS 260410Z 16011KT 19/17 A2995 RMK A01 T01860168  RH  093%=      5-min Rain = 0
KTIS 260415Z 16011KT 19/17 A2995 RMK A01 T01870168  RH  093%=      5-min Rain = 0
KTIS 260420Z 17010KT 19/17 A2995 RMK A01 T01880169  RH  094%=      5-min Rain = 0
KTIS 260425Z 16010KT 19/17 A2996 RMK A01 T01890170  RH  093%=      5-min Rain = 0
KTIS 260430Z 16011KT 19/17 A2995 RMK A01 T01890170  RH  093%=      5-min Rain = 0
KTIS 260435Z 16011KT 19/17 A2996 RMK A01 T01890170  RH  093%=      5-min Rain = 0
KTIS 260440Z 17010KT 19/17 A2996 RMK A01 T01900171  RH  093%=      5-min Rain = 0
KTIS 260445Z 17011KT 19/17 A2996 RMK A01 T01920172  RH  093%=      5-min Rain = 0
KTIS 260450Z 17011KT 19/17 A2996 RMK A01 T01930172  RH  092%=      5-min Rain = 0
KTIS 260455Z 17010KT 19/17 A2996 RMK A01 T01930172  RH  092%=      5-min Rain = 0

Page generated in 0.0094 seconds.